createdAt,value
2023-01-22T00:01:16.504Z,102299.69
2023-01-22T00:03:46.797Z,102339.72
2023-01-22T00:06:15.170Z,102337.13
2023-01-22T00:08:43.219Z,102312.88
2023-01-22T00:11:12.012Z,102331.94
2023-01-22T00:13:40.058Z,102301.47
2023-01-22T00:16:09.065Z,102331.69
2023-01-22T00:18:38.638Z,102338.25
2023-01-22T00:21:07.849Z,102337.84
2023-01-22T00:23:35.800Z,102305.47
2023-01-22T00:26:05.174Z,102334.31
2023-01-22T00:28:37.618Z,102334.56
2023-01-22T00:31:07.790Z,102314.81
2023-01-22T00:33:35.933Z,102330.94
2023-01-22T00:36:10.217Z,102323.19
2023-01-22T00:38:38.500Z,102323.84
2023-01-22T00:41:08.715Z,102321.03
2023-01-22T00:43:38.968Z,102292.81
2023-01-22T00:46:07.475Z,102321.34
2023-01-22T00:48:35.759Z,102328.22
2023-01-22T00:51:04.559Z,102281.06
2023-01-22T00:53:33.840Z,102323.41
2023-01-22T00:56:03.101Z,102325.06
2023-01-22T00:58:31.914Z,102297.72
2023-01-22T01:01:01.910Z,102323.16
2023-01-22T01:06:22.822Z,102318.31
2023-01-22T01:08:52.853Z,102317.66
2023-01-22T01:11:23.429Z,102319.16
2023-01-22T01:13:52.302Z,102282.03
2023-01-22T01:19:13.873Z,102319.81
2023-01-22T01:21:42.105Z,102302.44
2023-01-22T01:24:11.847Z,102310.50
2023-01-22T01:26:40.591Z,102316.13
2023-01-22T01:29:10.604Z,102294.06
2023-01-22T01:31:39.609Z,102312.06
2023-01-22T01:34:07.563Z,102272.75
2023-01-22T01:36:48.241Z,102298.69
2023-01-22T01:39:19.030Z,102314.19
2023-01-22T01:41:47.591Z,102285.94
2023-01-22T01:44:17.934Z,102304.38
2023-01-22T01:46:50.017Z,102271.47
2023-01-22T01:49:24.091Z,102284.09
2023-01-22T01:51:56.236Z,102267.31
2023-01-22T01:54:27.844Z,102254.28
2023-01-22T01:57:02.405Z,102269.13
2023-01-22T01:59:33.543Z,102281.56
2023-01-22T02:02:03.894Z,102304.00
2023-01-22T02:04:31.824Z,102306.22
2023-01-22T02:06:59.737Z,102290.22
2023-01-22T02:09:29.481Z,102299.78
2023-01-22T02:11:57.312Z,102275.03
2023-01-22T02:14:29.212Z,102239.81
2023-01-22T02:17:07.059Z,102294.59
2023-01-22T02:19:35.020Z,102285.41
2023-01-22T02:22:04.511Z,102283.53
2023-01-22T02:24:34.220Z,102284.56
2023-01-22T02:27:02.117Z,102294.47
2023-01-22T02:29:30.030Z,102269.72
2023-01-22T02:31:58.312Z,102272.25
2023-01-22T02:34:26.253Z,102279.06
2023-01-22T02:36:54.240Z,102281.09
2023-01-22T02:39:23.933Z,102243.44
2023-01-22T02:41:52.507Z,102268.59
2023-01-22T02:44:20.395Z,102249.19
2023-01-22T02:46:48.453Z,102267.94
2023-01-22T02:49:16.622Z,102240.97
2023-01-22T02:51:44.488Z,102282.34
2023-01-22T02:54:12.837Z,102245.06
2023-01-22T02:56:42.166Z,102257.69
2023-01-22T02:59:10.268Z,102255.72
2023-01-22T03:01:38.644Z,102231.19
2023-01-22T03:04:10.954Z,102253.53
2023-01-22T03:06:40.564Z,102261.38
2023-01-22T03:09:09.257Z,102259.63
2023-01-22T03:11:38.806Z,102224.75
2023-01-22T03:14:26.727Z,102262.38
2023-01-22T03:17:13.247Z,102252.22
2023-01-22T03:19:58.950Z,102248.88
2023-01-22T03:22:26.866Z,102233.13
2023-01-22T03:24:55.136Z,102238.78
2023-01-22T03:27:25.563Z,102198.25
2023-01-22T03:29:54.928Z,102207.53
2023-01-22T03:32:23.229Z,102239.00
2023-01-22T03:34:52.378Z,102238.59
2023-01-22T03:37:20.408Z,102230.94
2023-01-22T03:39:48.353Z,102244.63
2023-01-22T03:42:16.648Z,102231.38
2023-01-22T03:44:44.619Z,102228.88
2023-01-22T03:47:14.191Z,102169.03
2023-01-22T03:49:42.093Z,102195.56
2023-01-22T03:52:09.891Z,102206.22
2023-01-22T03:54:38.660Z,102169.78
2023-01-22T03:57:06.557Z,102183.66
2023-01-22T03:59:34.389Z,102181.78
2023-01-22T04:02:02.680Z,102192.13
2023-01-22T04:04:32.000Z,102212.28
2023-01-22T04:07:00.492Z,102201.00
2023-01-22T04:09:28.868Z,102228.25
2023-01-22T04:11:57.946Z,102220.25
2023-01-22T04:14:25.914Z,102226.06
2023-01-22T04:16:54.251Z,102219.47
2023-01-22T04:19:22.295Z,102219.47
2023-01-22T04:21:51.679Z,102196.41
2023-01-22T04:24:19.822Z,102207.91
2023-01-22T04:26:47.868Z,102191.09
2023-01-22T04:29:15.723Z,102181.72
2023-01-22T04:31:43.629Z,102189.00
2023-01-22T04:34:11.573Z,102203.41
2023-01-22T04:36:39.434Z,102178.16
2023-01-22T04:39:09.116Z,102208.75
2023-01-22T04:41:37.095Z,102193.50
2023-01-22T04:44:06.847Z,102158.00
2023-01-22T04:46:35.173Z,102168.75
2023-01-22T04:49:02.943Z,102149.25
2023-01-22T04:51:30.912Z,102199.13
2023-01-22T04:53:59.273Z,102133.78
2023-01-22T04:56:28.700Z,102203.41
2023-01-22T04:58:59.455Z,102195.56
2023-01-22T05:01:28.061Z,102133.78
2023-01-22T05:03:56.020Z,102171.25
2023-01-22T05:06:23.957Z,102146.75
2023-01-22T05:08:52.095Z,102144.22
2023-01-22T05:11:20.036Z,102166.78
2023-01-22T05:13:49.681Z,102161.97
2023-01-22T05:16:18.101Z,102173.34
2023-01-22T05:18:46.313Z,102191.84
2023-01-22T05:21:14.098Z,102184.31
2023-01-22T05:23:43.882Z,102174.69
2023-01-22T05:26:12.082Z,102165.22
2023-01-22T05:28:40.069Z,102210.50
2023-01-22T05:31:11.366Z,102210.91
2023-01-22T05:33:41.097Z,102177.50
2023-01-22T05:36:12.813Z,102224.41
2023-01-22T05:38:40.989Z,102195.16
2023-01-22T05:41:08.984Z,102189.00
2023-01-22T05:43:39.360Z,102183.03
2023-01-22T05:46:07.779Z,102193.91
2023-01-22T05:48:37.117Z,102194.25
2023-01-22T05:51:07.049Z,102189.13
2023-01-22T05:53:35.606Z,102219.19
2023-01-22T05:56:04.892Z,102214.56
2023-01-22T05:58:34.046Z,102222.00
2023-01-22T06:01:01.910Z,102180.66
2023-01-22T06:03:29.754Z,102206.97
2023-01-22T06:06:04.035Z,102217.41
2023-01-22T06:08:34.267Z,102213.44
2023-01-22T06:11:03.085Z,102212.06
2023-01-22T06:13:31.384Z,102198.28
2023-01-22T06:15:59.546Z,102232.19
2023-01-22T06:18:28.261Z,102222.69
2023-01-22T06:21:01.840Z,102227.63
2023-01-22T06:23:30.586Z,102187.06
2023-01-22T06:26:01.369Z,102221.03
2023-01-22T06:28:30.234Z,102219.97
2023-01-22T06:31:02.557Z,102229.41
2023-01-22T06:33:30.815Z,102241.19
2023-01-22T06:35:58.766Z,102219.72
2023-01-22T06:38:28.172Z,102228.56
2023-01-22T06:40:58.001Z,102235.88
2023-01-22T06:43:26.930Z,102197.88
2023-01-22T06:45:57.307Z,102213.03
2023-01-22T06:48:25.634Z,102215.09
2023-01-22T06:50:57.817Z,102223.88
2023-01-22T06:53:28.000Z,102231.88
2023-01-22T06:55:56.225Z,102237.97
2023-01-22T06:58:27.956Z,102232.84
2023-01-22T07:00:57.116Z,102242.56
2023-01-22T07:03:25.449Z,102191.19
2023-01-22T07:05:58.303Z,102231.78
2023-01-22T07:08:28.939Z,102226.78
2023-01-22T07:10:59.273Z,102215.41
2023-01-22T07:13:29.397Z,102198.66
2023-01-22T07:15:57.366Z,102167.13
2023-01-22T07:18:25.275Z,102244.03
2023-01-22T07:20:53.704Z,102236.03
2023-01-22T07:23:21.578Z,102251.72
2023-01-22T07:25:51.256Z,102255.25
2023-01-22T07:28:29.988Z,102213.69
2023-01-22T07:30:58.276Z,102236.59
2023-01-22T07:33:26.234Z,102258.34
2023-01-22T07:35:58.306Z,102258.78
2023-01-22T07:38:29.225Z,102252.94
2023-01-22T07:41:04.374Z,102269.81
2023-01-22T07:43:34.429Z,102246.72
2023-01-22T07:46:03.851Z,102208.63
2023-01-22T07:48:32.197Z,102258.44
2023-01-22T07:51:01.014Z,102232.03
2023-01-22T07:53:29.291Z,102236.56
2023-01-22T07:55:57.189Z,102247.94
2023-01-22T07:58:26.496Z,102267.75
2023-01-22T08:00:54.599Z,102268.00
2023-01-22T08:03:22.565Z,102258.44
2023-01-22T08:05:50.387Z,102254.19
2023-01-22T08:08:20.631Z,102252.63
2023-01-22T08:10:48.435Z,102238.94
2023-01-22T08:13:16.503Z,102248.13
2023-01-22T08:15:46.862Z,102243.44
2023-01-22T08:18:14.713Z,102252.72
2023-01-22T08:20:42.617Z,102289.81
2023-01-22T08:23:10.575Z,102264.06
2023-01-22T08:25:38.725Z,102279.97
2023-01-22T08:28:07.577Z,102278.22
2023-01-22T08:30:45.468Z,102290.75
2023-01-22T08:33:16.603Z,102286.69
2023-01-22T08:35:44.771Z,102286.16
2023-01-22T08:38:13.838Z,102274.22
2023-01-22T08:40:41.677Z,102285.44
2023-01-22T08:43:09.795Z,102289.41
2023-01-22T08:45:37.677Z,102250.41
2023-01-22T08:48:06.652Z,102290.53
2023-01-22T08:50:35.920Z,102298.66
2023-01-22T08:53:04.058Z,102285.91
2023-01-22T08:55:31.913Z,102288.78
2023-01-22T08:58:00.368Z,102271.63
2023-01-22T09:00:28.228Z,102275.72
2023-01-22T09:02:59.796Z,102238.00
2023-01-22T09:05:28.597Z,102276.97
2023-01-22T09:07:57.813Z,102300.78
2023-01-22T09:10:25.776Z,102300.59
2023-01-22T09:12:53.685Z,102295.56
2023-01-22T09:15:21.954Z,102252.63
2023-01-22T09:17:49.903Z,102273.63
2023-01-22T09:20:18.433Z,102300.97
2023-01-22T09:22:46.472Z,102294.16
2023-01-22T09:25:16.189Z,102297.75
2023-01-22T09:27:44.655Z,102291.78
2023-01-22T09:30:14.485Z,102306.25
2023-01-22T09:32:45.103Z,102314.47
2023-01-22T09:35:15.555Z,102305.59
2023-01-22T09:37:44.235Z,102314.56
2023-01-22T09:40:22.971Z,102297.66
2023-01-22T09:42:51.839Z,102311.66
2023-01-22T09:45:23.657Z,102309.22
2023-01-22T09:47:55.396Z,102321.66
2023-01-22T09:50:27.021Z,102317.09
2023-01-22T09:52:58.740Z,102319.47
2023-01-22T09:55:33.096Z,102298.28
2023-01-22T09:58:05.620Z,102288.22
2023-01-22T10:00:42.660Z,102313.09
2023-01-22T10:03:16.042Z,102297.44
2023-01-22T10:05:47.978Z,102315.84
2023-01-22T10:08:20.027Z,102305.06
2023-01-22T10:10:51.434Z,102317.91
2023-01-22T10:13:21.645Z,102331.09
2023-01-22T10:15:50.680Z,102328.91
2023-01-22T10:18:28.763Z,102311.66
2023-01-22T10:20:57.646Z,102318.34
2023-01-22T10:23:27.470Z,102327.88
2023-01-22T10:26:05.914Z,102292.66
2023-01-22T10:28:33.920Z,102335.06
2023-01-22T10:31:01.967Z,102324.00
2023-01-22T10:33:29.899Z,102317.09
2023-01-22T10:35:58.338Z,102321.50
2023-01-22T10:38:28.523Z,102325.28
2023-01-22T10:41:00.499Z,102307.06
2023-01-22T10:43:33.990Z,102328.81
2023-01-22T10:46:07.630Z,102309.56
2023-01-22T10:48:35.573Z,102314.38
2023-01-22T10:51:15.919Z,102296.81
2023-01-22T10:53:50.506Z,102320.66
2023-01-22T10:56:31.839Z,102313.59
2023-01-22T10:59:01.131Z,102313.84
2023-01-22T11:01:33.788Z,102315.44
2023-01-22T11:04:13.202Z,102326.72
2023-01-22T11:06:46.361Z,102270.91
2023-01-22T11:09:18.896Z,102294.56
2023-01-22T11:11:53.713Z,102312.22
2023-01-22T11:14:27.101Z,102315.06
2023-01-22T11:17:00.330Z,102302.31
2023-01-22T11:19:37.569Z,102307.31
2023-01-22T11:22:14.838Z,102293.53
2023-01-22T11:24:47.363Z,102297.16
2023-01-22T11:27:32.215Z,102281.16
2023-01-22T11:30:30.506Z,102299.78
2023-01-22T11:33:07.318Z,102308.78
2023-01-22T11:35:45.691Z,102301.16
2023-01-22T11:38:30.734Z,102303.56
2023-01-22T11:41:16.519Z,102254.56
2023-01-22T11:44:03.395Z,102283.91
2023-01-22T11:46:49.074Z,102298.34
2023-01-22T11:49:32.037Z,102290.72
2023-01-22T11:52:12.024Z,102272.66
2023-01-22T11:54:57.002Z,102296.06
2023-01-22T11:57:31.566Z,102278.91
2023-01-22T12:00:24.448Z,102266.06
2023-01-22T12:03:35.320Z,102281.53
2023-01-22T12:06:14.135Z,102267.63
2023-01-22T12:08:53.471Z,102281.63
2023-01-22T12:11:38.896Z,102275.97
2023-01-22T12:14:20.133Z,102283.19
2023-01-22T12:16:55.794Z,102249.25
2023-01-22T12:19:49.602Z,102252.72
2023-01-22T12:22:30.164Z,102242.78
2023-01-22T12:25:04.609Z,102201.44
2023-01-22T12:27:36.631Z,102240.59
2023-01-22T12:30:15.283Z,102198.59
2023-01-22T12:32:50.077Z,102257.72
2023-01-22T12:35:19.579Z,102267.44
2023-01-22T12:41:09.415Z,102238.41
2023-01-22T12:43:44.561Z,102270.88
2023-01-22T12:46:18.585Z,102260.94
2023-01-22T12:48:57.149Z,102214.38
2023-01-22T12:51:29.367Z,102260.53
2023-01-22T12:53:57.228Z,102253.66
2023-01-22T12:56:34.427Z,102269.84
2023-01-22T12:59:02.364Z,102239.03
2023-01-22T13:01:35.838Z,102241.94
2023-01-22T13:04:07.955Z,102260.53
2023-01-22T13:06:41.445Z,102274.63
2023-01-22T13:09:25.205Z,102272.84
2023-01-22T13:11:53.498Z,102252.81
2023-01-22T13:14:26.730Z,102261.38
2023-01-22T13:16:57.482Z,102271.59
2023-01-22T13:19:29.419Z,102265.53
2023-01-22T13:22:00.177Z,102265.66
2023-01-22T13:24:28.071Z,102233.16
2023-01-22T13:26:58.953Z,102252.19
2023-01-22T13:32:22.614Z,102262.81
2023-01-22T13:35:03.148Z,102261.66
2023-01-22T13:37:31.808Z,102264.16
2023-01-22T13:40:12.153Z,102241.63
2023-01-22T13:42:44.268Z,102254.88
2023-01-22T13:45:17.619Z,102242.34
2023-01-22T13:47:45.723Z,102221.38
2023-01-22T13:50:22.874Z,102266.16
2023-01-22T13:52:51.722Z,102265.72
2023-01-22T13:55:21.816Z,102273.88
2023-01-22T13:57:51.538Z,102245.69
2023-01-22T14:00:25.006Z,102267.63
2023-01-22T14:02:54.095Z,102283.06
2023-01-22T14:05:25.447Z,102280.84
2023-01-22T14:08:06.066Z,102278.91
2023-01-22T14:10:34.157Z,102286.00
2023-01-22T14:13:03.593Z,102286.59
2023-01-22T14:15:32.389Z,102296.13
2023-01-22T14:18:09.166Z,102287.22
2023-01-22T14:20:40.614Z,102287.47
2023-01-22T14:23:08.773Z,102234.31
2023-01-22T14:25:38.870Z,102287.34
2023-01-22T14:28:07.022Z,102304.50
2023-01-22T14:30:35.135Z,102283.50
2023-01-22T14:33:03.529Z,102277.75
2023-01-22T14:35:31.657Z,102285.78
2023-01-22T14:38:01.225Z,102265.97
2023-01-22T14:40:30.320Z,102274.53
2023-01-22T14:43:01.110Z,102270.16
2023-01-22T14:45:29.292Z,102278.28
2023-01-22T14:47:57.461Z,102310.16
2023-01-22T14:50:26.227Z,102301.59
2023-01-22T14:52:54.320Z,102309.44
2023-01-22T14:55:23.663Z,102312.13
2023-01-22T14:57:51.505Z,102284.13
2023-01-22T15:00:20.331Z,102320.28
2023-01-22T15:02:48.948Z,102316.84
2023-01-22T15:05:17.177Z,102320.28
2023-01-22T15:07:45.024Z,102308.25
2023-01-22T15:10:13.326Z,102323.09
2023-01-22T15:12:48.653Z,102317.56
2023-01-22T15:15:16.778Z,102304.91
2023-01-22T15:17:44.584Z,102302.75
2023-01-22T15:20:13.792Z,102321.44
2023-01-22T15:22:41.753Z,102312.13
2023-01-22T15:25:10.054Z,102297.78
2023-01-22T15:27:38.838Z,102319.34
2023-01-22T15:30:09.650Z,102316.94
2023-01-22T15:32:37.637Z,102315.03
2023-01-22T15:35:06.520Z,102320.38
2023-01-22T15:37:34.540Z,102288.72
2023-01-22T15:40:02.495Z,102309.50
2023-01-22T15:42:30.869Z,102296.75
2023-01-22T15:44:58.842Z,102304.28
2023-01-22T15:47:28.232Z,102302.63
2023-01-22T15:49:56.640Z,102292.69
2023-01-22T15:52:24.452Z,102306.78
2023-01-22T15:54:54.282Z,102303.13
2023-01-22T15:57:22.402Z,102317.75
2023-01-22T15:59:51.572Z,102311.50
2023-01-22T16:02:19.606Z,102307.84
2023-01-22T16:04:48.838Z,102308.13
2023-01-22T16:07:16.803Z,102294.34
2023-01-22T16:09:44.641Z,102293.22
2023-01-22T16:12:13.216Z,102300.41
2023-01-22T16:14:41.357Z,102279.22
2023-01-22T16:17:09.409Z,102317.75
2023-01-22T16:19:37.742Z,102276.38
2023-01-22T16:22:07.124Z,102327.19
2023-01-22T16:24:35.261Z,102313.34
2023-01-22T16:27:03.811Z,102307.09
2023-01-22T16:29:31.730Z,102304.16
2023-01-22T16:31:59.507Z,102322.16
2023-01-22T16:34:27.882Z,102316.59
2023-01-22T16:36:57.611Z,102301.06
2023-01-22T16:39:27.070Z,102306.38
2023-01-22T16:44:44.455Z,102323.00
2023-01-22T16:50:04.698Z,102325.09
2023-01-22T16:52:32.566Z,102330.53
2023-01-22T16:55:01.822Z,102309.41
2023-01-22T17:00:19.949Z,102328.94
2023-01-22T17:02:48.564Z,102332.19
2023-01-22T17:05:16.559Z,102321.63
2023-01-22T17:07:44.349Z,102331.25
2023-01-22T17:10:14.510Z,102346.19
2023-01-22T17:12:42.391Z,102310.03
2023-01-22T17:15:11.331Z,102319.22
2023-01-22T17:17:39.801Z,102328.53
2023-01-22T17:20:08.671Z,102337.00
2023-01-22T17:22:36.512Z,102334.50
2023-01-22T17:25:05.199Z,102329.47
2023-01-22T17:27:36.191Z,102330.94
2023-01-22T17:30:06.197Z,102333.03
2023-01-22T17:32:34.114Z,102316.22
2023-01-22T17:35:02.097Z,102323.63
2023-01-22T17:37:30.529Z,102341.06
2023-01-22T17:39:58.473Z,102337.22
2023-01-22T17:42:26.313Z,102351.22
2023-01-22T17:44:59.001Z,102360.84
2023-01-22T17:47:26.759Z,102326.78
2023-01-22T17:49:56.084Z,102347.44
2023-01-22T17:52:24.867Z,102359.97
2023-01-22T17:54:54.343Z,102325.81
2023-01-22T17:57:22.305Z,102329.69
2023-01-22T17:59:51.923Z,102327.50
2023-01-22T18:02:21.247Z,102366.03
2023-01-22T18:04:49.231Z,102365.00
2023-01-22T18:07:18.750Z,102357.38
2023-01-22T18:09:46.664Z,102361.25
2023-01-22T18:12:14.585Z,102368.78
2023-01-22T18:14:42.418Z,102324.78
2023-01-22T18:17:10.444Z,102374.84
2023-01-22T18:19:39.747Z,102331.66
2023-01-22T18:22:08.177Z,102365.00
2023-01-22T18:24:36.488Z,102363.25
2023-01-22T18:27:04.307Z,102351.41
2023-01-22T18:29:32.791Z,102369.50
2023-01-22T18:32:00.722Z,102353.31
2023-01-22T18:34:28.527Z,102325.41
2023-01-22T18:37:00.009Z,102370.84
2023-01-22T18:39:28.344Z,102365.44
2023-01-22T18:41:56.212Z,102372.53
2023-01-22T18:44:28.279Z,102354.97
2023-01-22T18:46:58.766Z,102380.88
2023-01-22T18:49:28.655Z,102337.00
2023-01-22T18:52:00.989Z,102374.50
2023-01-22T18:54:29.370Z,102368.31
2023-01-22T18:56:57.352Z,102363.53
2023-01-22T18:59:25.604Z,102365.75
2023-01-22T19:01:53.761Z,102362.19
2023-01-22T19:04:22.395Z,102387.69
2023-01-22T19:06:54.721Z,102383.28
2023-01-22T19:09:26.781Z,102390.72
2023-01-22T19:11:55.734Z,102382.03
2023-01-22T19:14:23.672Z,102350.56
2023-01-22T19:16:53.448Z,102366.25
2023-01-22T19:19:25.450Z,102370.44
2023-01-22T19:21:54.717Z,102392.81
2023-01-22T19:24:28.449Z,102389.91
2023-01-22T19:26:57.404Z,102385.38
2023-01-22T19:29:26.625Z,102385.72
2023-01-22T19:31:57.307Z,102385.47
2023-01-22T19:34:26.278Z,102383.81
2023-01-22T19:36:55.829Z,102383.63
2023-01-22T19:39:26.727Z,102391.03
2023-01-22T19:41:55.441Z,102376.72
2023-01-22T19:44:24.389Z,102366.06
2023-01-22T19:46:52.961Z,102350.56
